createdAt,value
2018-12-26T00:00:42.408Z,41.95
2018-12-26T00:03:15.859Z,38.17
2018-12-26T00:05:45.616Z,41.15
2018-12-26T00:08:17.389Z,45.25
2018-12-26T00:10:47.169Z,41.83
2018-12-26T00:13:20.629Z,46.37
2018-12-26T00:15:53.141Z,41.18
2018-12-26T00:18:22.988Z,42.10
2018-12-26T00:20:55.625Z,40.40
2018-12-26T00:23:28.215Z,39.65
2018-12-26T00:26:01.718Z,45.28
2018-12-26T00:28:32.641Z,43.85
2018-12-26T00:31:05.114Z,42.05
2018-12-26T00:33:34.857Z,40.83
2018-12-26T00:36:06.337Z,43.13
2018-12-26T00:38:39.371Z,38.73
2018-12-26T00:41:09.210Z,46.37
2018-12-26T00:43:41.960Z,43.60
2018-12-26T00:46:16.637Z,40.85
2018-12-26T00:48:43.526Z,47.17
2018-12-26T00:51:16.473Z,45.70
2018-12-26T00:53:46.230Z,44.25
2018-12-26T00:56:19.028Z,40.30
2018-12-26T00:58:51.606Z,46.63
2018-12-26T01:01:21.317Z,44.50
2018-12-26T01:03:54.402Z,45.05
2018-12-26T01:06:27.127Z,44.42
2018-12-26T01:08:56.922Z,52.30
2018-12-26T01:11:29.501Z,49.45
2018-12-26T01:14:02.236Z,49.85
2018-12-26T01:16:31.528Z,49.90
2018-12-26T01:19:04.462Z,49.40
2018-12-26T01:21:34.173Z,48.08
2018-12-26T01:24:06.768Z,46.53
2018-12-26T01:26:38.914Z,46.20
2018-12-26T01:29:08.704Z,49.95
2018-12-26T01:31:41.945Z,49.27
2018-12-26T01:34:17.722Z,48.08
2018-12-26T01:36:44.086Z,48.13
2018-12-26T01:39:16.501Z,48.13
2018-12-26T01:41:46.269Z,43.38
2018-12-26T01:44:19.034Z,48.90
2018-12-26T01:46:50.945Z,52.45
2018-12-26T01:49:20.694Z,53.80
2018-12-26T01:51:52.785Z,55.35
2018-12-26T01:54:22.580Z,47.05
2018-12-26T01:56:53.618Z,53.75
2018-12-26T01:59:23.456Z,53.95
2018-12-26T02:01:56.387Z,50.20
2018-12-26T02:04:29.181Z,47.65
2018-12-26T02:06:58.959Z,51.28
2018-12-26T02:09:30.381Z,47.23
2018-12-26T02:12:02.996Z,46.70
2018-12-26T02:14:32.719Z,47.38
2018-12-26T02:17:04.753Z,47.20
2018-12-26T02:19:34.556Z,47.17
2018-12-26T02:22:05.558Z,51.10
2018-12-26T02:24:35.308Z,57.27
2018-12-26T02:27:07.993Z,55.08
2018-12-26T02:29:39.992Z,50.08
2018-12-26T02:32:09.694Z,46.10
2018-12-26T02:34:42.440Z,49.48
2018-12-26T02:37:19.545Z,50.23
2018-12-26T02:39:52.005Z,53.80
2018-12-26T02:42:21.815Z,55.70
2018-12-26T02:44:54.387Z,54.88
2018-12-26T02:47:31.490Z,49.48
2018-12-26T02:50:08.582Z,48.73
2018-12-26T02:52:41.122Z,51.60
2018-12-26T02:55:10.827Z,47.08
2018-12-26T02:57:41.652Z,50.30
2018-12-26T03:00:11.424Z,50.23
2018-12-26T03:02:43.800Z,49.13
2018-12-26T03:05:16.745Z,53.60
2018-12-26T03:07:46.496Z,49.08
2018-12-26T03:10:17.773Z,47.95
2018-12-26T03:12:47.505Z,52.35
2018-12-26T03:15:19.934Z,50.73
2018-12-26T03:17:52.686Z,48.58
2018-12-26T03:20:22.365Z,46.25
2018-12-26T03:22:55.565Z,49.10
2018-12-26T03:25:29.124Z,46.70
2018-12-26T03:27:58.835Z,48.92
2018-12-26T03:30:29.811Z,50.75
2018-12-26T03:32:59.679Z,47.58
2018-12-26T03:35:32.637Z,50.05
2018-12-26T03:38:05.505Z,44.60
2018-12-26T03:40:38.502Z,45.30
2018-12-26T03:43:07.935Z,43.02
2018-12-26T03:45:41.756Z,44.70
2018-12-26T03:48:11.505Z,45.55
2018-12-26T03:50:45.221Z,47.65
2018-12-26T03:53:18.014Z,48.52
2018-12-26T03:55:47.705Z,48.35
2018-12-26T03:58:20.900Z,51.98
2018-12-26T04:00:52.959Z,52.95
2018-12-26T04:03:22.845Z,43.52
2018-12-26T04:05:53.812Z,43.25
2018-12-26T04:08:26.540Z,43.42
2018-12-26T04:10:56.008Z,50.90
2018-12-26T04:13:28.961Z,47.53
2018-12-26T04:15:58.727Z,52.53
2018-12-26T04:18:31.184Z,42.45
2018-12-26T04:21:04.249Z,49.00
2018-12-26T04:23:34.176Z,44.73
2018-12-26T04:26:07.569Z,46.88
2018-12-26T04:28:39.971Z,50.58
2018-12-26T04:31:09.674Z,48.63
2018-12-26T04:33:42.408Z,47.58
2018-12-26T04:36:17.114Z,49.03
2018-12-26T04:38:46.069Z,52.27
2018-12-26T04:41:18.906Z,50.92
2018-12-26T04:43:53.123Z,51.13
2018-12-26T04:46:22.848Z,52.25
2018-12-26T04:48:55.584Z,57.20
2018-12-26T04:51:28.010Z,46.05
2018-12-26T04:53:57.778Z,56.88
2018-12-26T04:56:30.506Z,49.67
2018-12-26T04:59:03.048Z,55.05
2018-12-26T05:01:32.760Z,46.10
2018-12-26T05:04:05.370Z,54.75
2018-12-26T05:06:35.165Z,50.50
2018-12-26T05:09:08.142Z,52.90
2018-12-26T05:11:40.282Z,44.13
2018-12-26T05:14:10.038Z,45.88
2018-12-26T05:16:42.093Z,53.10
2018-12-26T05:19:11.780Z,51.10
2018-12-26T05:21:44.163Z,46.70
2018-12-26T05:24:16.329Z,53.00
2018-12-26T05:26:46.116Z,48.38
2018-12-26T05:29:18.654Z,51.15
2018-12-26T05:31:51.173Z,43.90
2018-12-26T05:34:20.864Z,51.42
2018-12-26T05:36:53.732Z,56.40
2018-12-26T05:39:23.446Z,45.17
2018-12-26T05:41:54.761Z,51.55
2018-12-26T05:44:32.109Z,47.48
2018-12-26T05:47:04.763Z,58.13
2018-12-26T05:49:34.537Z,53.42
2018-12-26T05:52:06.005Z,76.62
2018-12-26T05:54:35.725Z,58.83
2018-12-26T05:57:08.489Z,46.95
2018-12-26T05:59:40.961Z,54.03
2018-12-26T06:02:10.716Z,48.45
2018-12-26T06:04:43.216Z,52.50
2018-12-26T06:07:15.544Z,57.30
2018-12-26T06:09:45.222Z,96.70
2018-12-26T06:12:17.221Z,49.45
2018-12-26T06:14:46.913Z,55.12
2018-12-26T06:17:19.725Z,79.25
2018-12-26T06:19:55.125Z,116.25
2018-12-26T06:22:27.492Z,101.30
2018-12-26T06:24:57.188Z,81.30
2018-12-26T06:27:30.909Z,58.00
2018-12-26T06:30:08.049Z,81.25
2018-12-26T06:32:40.638Z,64.67
2018-12-26T06:35:10.308Z,46.75
2018-12-26T06:37:43.700Z,44.40
2018-12-26T06:40:16.255Z,50.85
2018-12-26T06:42:45.966Z,69.70
2018-12-26T06:45:18.744Z,45.30
2018-12-26T06:47:50.883Z,53.15
2018-12-26T06:50:20.358Z,53.78
2018-12-26T06:52:53.134Z,85.90
2018-12-26T06:55:22.824Z,65.17
2018-12-26T06:58:00.007Z,73.90
2018-12-26T07:00:30.230Z,86.15
2018-12-26T07:03:00.018Z,70.95
2018-12-26T07:05:33.292Z,69.12
2018-12-26T07:08:05.312Z,124.85
2018-12-26T07:10:35.087Z,147.10
2018-12-26T07:13:06.220Z,83.00
2018-12-26T07:15:35.895Z,124.05
2018-12-26T07:18:08.268Z,77.08
2018-12-26T07:20:40.970Z,67.82
2018-12-26T07:23:10.664Z,53.78
2018-12-26T07:25:43.383Z,64.70
2018-12-26T07:28:15.637Z,74.85
2018-12-26T07:30:45.408Z,90.20
2018-12-26T07:33:19.369Z,84.25
2018-12-26T07:35:51.638Z,66.75
2018-12-26T07:38:21.330Z,58.68
2018-12-26T07:40:53.381Z,72.10
2018-12-26T07:43:23.125Z,62.95
2018-12-26T07:45:55.817Z,55.10
2018-12-26T07:48:28.996Z,59.80
2018-12-26T07:50:58.842Z,58.10
2018-12-26T07:53:30.216Z,52.80
2018-12-26T07:55:59.914Z,59.98
2018-12-26T07:58:31.238Z,89.25
2018-12-26T08:01:03.936Z,42.58
2018-12-26T08:03:33.641Z,94.45
2018-12-26T08:06:07.598Z,42.03
2018-12-26T08:08:39.733Z,42.88
2018-12-26T08:11:09.425Z,42.40
2018-12-26T08:13:41.990Z,51.92
2018-12-26T08:16:11.688Z,36.38
2018-12-26T08:18:43.010Z,42.45
2018-12-26T08:21:18.909Z,32.58
2018-12-26T08:23:46.760Z,40.12
2018-12-26T08:26:19.463Z,35.30
2018-12-26T08:28:51.944Z,64.75
2018-12-26T08:31:21.608Z,90.12
2018-12-26T08:33:54.098Z,42.33
2018-12-26T08:36:27.565Z,38.53
2018-12-26T08:38:57.270Z,36.30
2018-12-26T08:41:29.794Z,34.63
2018-12-26T08:43:59.483Z,24.52
2018-12-26T08:46:32.052Z,26.60
2018-12-26T08:49:04.062Z,42.05
2018-12-26T08:51:33.821Z,34.55
2018-12-26T08:54:06.231Z,27.05
2018-12-26T08:56:35.896Z,24.47
2018-12-26T08:59:07.217Z,22.70
2018-12-26T09:01:44.033Z,34.85
2018-12-26T09:04:16.193Z,23.10
2018-12-26T09:06:45.872Z,36.48
2018-12-26T09:09:18.299Z,25.08
2018-12-26T09:11:47.985Z,22.02
2018-12-26T09:14:19.449Z,22.35
2018-12-26T09:16:52.274Z,24.20
2018-12-26T09:19:21.979Z,22.67
2018-12-26T09:21:54.420Z,22.80
2018-12-26T09:24:27.280Z,27.00
2018-12-26T09:26:57.445Z,25.68
2018-12-26T09:29:29.940Z,24.65
2018-12-26T09:31:59.628Z,28.42
2018-12-26T09:34:30.505Z,23.12
2018-12-26T09:37:00.210Z,24.15
2018-12-26T09:39:31.558Z,26.57
2018-12-26T09:42:04.105Z,29.85
2018-12-26T09:44:34.608Z,26.87
2018-12-26T09:47:07.134Z,27.93
2018-12-26T09:49:42.181Z,24.77
2018-12-26T09:52:08.638Z,21.70
2018-12-26T09:54:41.456Z,21.97
2018-12-26T09:57:11.141Z,18.85
2018-12-26T09:59:42.624Z,24.40
2018-12-26T10:02:12.314Z,25.10
2018-12-26T10:04:45.008Z,55.40
2018-12-26T10:07:17.828Z,26.20
2018-12-26T10:09:47.550Z,34.65
2018-12-26T10:12:20.320Z,22.87
2018-12-26T10:14:52.752Z,39.45
2018-12-26T10:17:44.734Z,214.60
2018-12-26T10:20:17.537Z,74.40
2018-12-26T10:22:47.253Z,21.15
2018-12-26T10:25:18.945Z,17.60
2018-12-26T10:27:51.389Z,16.93
2018-12-26T10:30:22.565Z,18.37
2018-12-26T10:32:55.053Z,16.07
2018-12-26T10:35:31.126Z,17.73
2018-12-26T10:37:56.748Z,16.65
2018-12-26T10:40:29.545Z,21.07
2018-12-26T10:42:59.311Z,19.12
2018-12-26T10:45:32.505Z,18.00
2018-12-26T10:48:05.041Z,18.07
2018-12-26T10:50:34.741Z,17.10
2018-12-26T10:53:07.285Z,20.17
2018-12-26T10:55:41.885Z,21.35
2018-12-26T10:58:08.899Z,24.93
2018-12-26T11:00:41.685Z,23.07
2018-12-26T11:03:11.395Z,20.17
2018-12-26T11:05:44.409Z,20.70
2018-12-26T11:08:17.299Z,21.80
2018-12-26T11:10:47.101Z,20.37
2018-12-26T11:13:19.609Z,20.20
2018-12-26T11:15:58.116Z,20.50
2018-12-26T11:18:35.409Z,23.10
2018-12-26T11:21:06.875Z,22.00
2018-12-26T11:23:36.578Z,21.53
2018-12-26T11:26:09.314Z,20.80
2018-12-26T11:28:41.799Z,19.40
2018-12-26T11:31:11.487Z,20.50
2018-12-26T11:33:44.197Z,18.43
2018-12-26T11:36:16.441Z,16.33
2018-12-26T11:38:46.238Z,22.20
2018-12-26T11:41:18.891Z,19.80
2018-12-26T11:43:48.586Z,21.70
2018-12-26T11:46:21.238Z,21.33
2018-12-26T11:48:54.980Z,19.33
2018-12-26T11:51:24.673Z,18.37
2018-12-26T11:53:58.280Z,19.30
2018-12-26T11:56:30.766Z,18.23
2018-12-26T11:59:00.474Z,18.87
2018-12-26T12:01:31.941Z,19.93
2018-12-26T12:04:04.994Z,22.47
2018-12-26T12:06:34.833Z,22.17
2018-12-26T12:09:07.614Z,26.07
2018-12-26T12:11:44.842Z,33.83
2018-12-26T12:14:17.941Z,24.47
2018-12-26T12:16:47.719Z,24.03
2018-12-26T12:19:19.193Z,28.53
2018-12-26T12:21:53.470Z,24.63
2018-12-26T12:24:21.011Z,23.57
2018-12-26T12:26:53.809Z,23.13
2018-12-26T12:29:23.662Z,21.80
2018-12-26T12:31:55.348Z,21.47
2018-12-26T12:34:30.244Z,18.67
2018-12-26T12:36:57.114Z,26.50
2018-12-26T12:39:30.046Z,19.73
2018-12-26T12:42:00.682Z,23.43
2018-12-26T12:44:34.096Z,20.60
2018-12-26T12:47:08.266Z,23.50
2018-12-26T12:49:40.444Z,21.10
2018-12-26T12:52:10.124Z,20.60
2018-12-26T12:54:43.993Z,20.60
2018-12-26T12:57:16.876Z,21.00
2018-12-26T12:59:46.713Z,16.13
2018-12-26T13:02:19.530Z,16.03
2018-12-26T13:04:52.170Z,18.30
2018-12-26T13:07:21.877Z,17.77
2018-12-26T13:09:54.692Z,17.87
2018-12-26T13:12:24.392Z,16.63
2018-12-26T13:14:55.892Z,17.77
2018-12-26T13:17:28.609Z,16.97
2018-12-26T13:19:58.308Z,16.93
2018-12-26T13:22:30.774Z,15.20
2018-12-26T13:25:00.501Z,14.67
2018-12-26T13:27:31.905Z,19.33
2018-12-26T13:30:04.248Z,18.30
2018-12-26T13:32:34.012Z,17.03
2018-12-26T13:35:06.908Z,17.10
2018-12-26T13:37:45.889Z,17.37
2018-12-26T13:40:18.686Z,17.47
2018-12-26T13:42:48.488Z,17.63
2018-12-26T13:45:19.833Z,18.27
2018-12-26T13:47:52.287Z,16.57
2018-12-26T13:50:22.834Z,25.97
2018-12-26T13:52:55.882Z,18.20
2018-12-26T13:55:33.030Z,19.87
2018-12-26T13:58:06.003Z,17.00
2018-12-26T14:00:35.765Z,19.60
2018-12-26T14:03:08.700Z,18.13
2018-12-26T14:05:40.768Z,22.10
2018-12-26T14:08:10.497Z,22.73
2018-12-26T14:10:43.041Z,20.73
2018-12-26T14:13:12.775Z,22.17
2018-12-26T14:15:44.078Z,26.20
2018-12-26T14:18:19.522Z,26.57
2018-12-26T14:20:53.284Z,27.23
2018-12-26T14:23:23.174Z,28.83
2018-12-26T14:25:55.134Z,28.53
2018-12-26T14:28:24.813Z,35.27
2018-12-26T14:30:56.151Z,27.90
2018-12-26T14:33:28.589Z,25.33
2018-12-26T14:35:59.151Z,28.07
2018-12-26T14:38:32.490Z,29.40
2018-12-26T14:41:05.424Z,28.47
2018-12-26T14:43:35.110Z,35.03
2018-12-26T14:46:07.636Z,32.50
2018-12-26T14:48:41.813Z,35.53
2018-12-26T14:51:09.276Z,33.73
2018-12-26T14:53:41.878Z,35.63
2018-12-26T14:56:11.621Z,41.07
2018-12-26T14:58:44.898Z,38.70
2018-12-26T15:01:17.387Z,39.53
2018-12-26T15:03:47.353Z,35.57
2018-12-26T15:06:20.014Z,31.50
2018-12-26T15:08:52.464Z,38.70
2018-12-26T15:11:22.290Z,35.17
2018-12-26T15:13:55.172Z,37.67
2018-12-26T15:16:24.948Z,41.43
2018-12-26T15:19:09.528Z,38.33
2018-12-26T15:21:42.544Z,38.13
2018-12-26T15:24:12.253Z,41.63
2018-12-26T15:26:45.087Z,48.02
2018-12-26T15:29:17.460Z,41.65
2018-12-26T15:31:47.171Z,39.13
2018-12-26T15:34:19.925Z,48.78
2018-12-26T15:36:54.579Z,44.83
2018-12-26T15:39:22.127Z,52.43
2018-12-26T15:41:54.693Z,47.50
2018-12-26T15:44:24.468Z,50.20
2018-12-26T15:46:55.409Z,51.28
2018-12-26T15:49:25.114Z,45.23
2018-12-26T15:51:58.793Z,45.43
2018-12-26T15:54:31.408Z,53.33
2018-12-26T15:57:01.256Z,49.88
2018-12-26T15:59:33.751Z,61.30
2018-12-26T16:02:07.976Z,52.70
2018-12-26T16:04:42.376Z,49.15
2018-12-26T16:07:09.566Z,47.73
2018-12-26T16:09:41.854Z,54.88
2018-12-26T16:12:11.565Z,58.92
2018-12-26T16:14:44.059Z,48.13
2018-12-26T16:17:18.666Z,50.67
2018-12-26T16:19:45.874Z,54.70
2018-12-26T16:22:19.728Z,61.50
2018-12-26T16:24:52.199Z,52.43
2018-12-26T16:27:22.127Z,52.08
2018-12-26T16:29:54.691Z,57.17
2018-12-26T16:32:24.467Z,58.75
2018-12-26T16:34:57.251Z,60.17
2018-12-26T16:37:29.815Z,54.90
2018-12-26T16:39:59.587Z,59.30
2018-12-26T16:42:33.384Z,58.90
2018-12-26T16:45:07.135Z,61.10
2018-12-26T16:47:36.908Z,72.62
2018-12-26T16:50:09.301Z,60.78
2018-12-26T16:52:41.852Z,64.53
2018-12-26T16:55:11.770Z,53.85
2018-12-26T16:57:46.753Z,59.05
2018-12-26T17:00:20.552Z,54.55
2018-12-26T17:02:54.173Z,58.70
2018-12-26T17:05:23.976Z,55.65
2018-12-26T17:07:55.617Z,51.50
2018-12-26T17:10:25.384Z,62.13
2018-12-26T17:12:58.652Z,68.87
2018-12-26T17:15:31.262Z,64.87
2018-12-26T17:18:00.949Z,65.90
2018-12-26T17:20:32.368Z,79.12
2018-12-26T17:23:09.282Z,75.37
2018-12-26T17:25:46.559Z,67.35
2018-12-26T17:28:19.452Z,55.05
2018-12-26T17:30:49.296Z,62.45
2018-12-26T17:33:20.722Z,55.85
2018-12-26T17:35:53.361Z,53.55
2018-12-26T17:38:23.138Z,62.80
2018-12-26T17:40:55.633Z,67.78
2018-12-26T17:43:25.394Z,55.00
2018-12-26T17:45:58.248Z,54.93
2018-12-26T17:48:35.475Z,57.85
2018-12-26T17:51:12.913Z,61.42
2018-12-26T17:54:08.949Z,52.75
2018-12-26T17:57:17.299Z,50.85
2018-12-26T18:00:42.943Z,48.50
2018-12-26T18:03:09.849Z,45.67
2018-12-26T18:05:42.453Z,55.30
2018-12-26T18:08:12.152Z,55.00
2018-12-26T18:10:43.728Z,51.13
2018-12-26T18:13:13.417Z,63.85
2018-12-26T18:15:46.913Z,59.85
2018-12-26T18:18:20.791Z,58.00
2018-12-26T18:20:53.692Z,52.43
2018-12-26T18:23:23.497Z,54.80
2018-12-26T18:25:56.308Z,80.80
2018-12-26T18:28:31.426Z,70.80
2018-12-26T18:30:57.918Z,73.25
2018-12-26T18:33:30.698Z,62.03
2018-12-26T18:36:00.557Z,69.22
2018-12-26T18:38:31.876Z,65.52
2018-12-26T18:41:01.675Z,66.05
2018-12-26T18:43:34.485Z,64.07
2018-12-26T18:46:06.944Z,57.75
2018-12-26T18:48:36.713Z,58.73
2018-12-26T18:51:09.316Z,59.15
2018-12-26T18:53:41.417Z,50.70
2018-12-26T18:56:11.297Z,51.42
2018-12-26T18:58:45.760Z,59.67
2018-12-26T19:01:19.630Z,57.17
2018-12-26T19:03:49.348Z,50.28
2018-12-26T19:06:20.631Z,55.23
2018-12-26T19:08:54.987Z,57.98
2018-12-26T19:11:22.928Z,65.97
2018-12-26T19:13:55.461Z,51.18
2018-12-26T19:16:25.183Z,60.70
2018-12-26T19:18:56.652Z,52.30
2018-12-26T19:21:30.869Z,53.42
2018-12-26T19:23:57.981Z,51.20
2018-12-26T19:26:30.980Z,57.00
2018-12-26T19:29:00.776Z,55.30
2018-12-26T19:31:39.411Z,56.20
2018-12-26T19:34:06.767Z,49.13
2018-12-26T19:36:36.803Z,48.63
2018-12-26T19:39:08.286Z,57.62
2018-12-26T19:41:43.426Z,52.70
2018-12-26T19:44:10.214Z,51.08
2018-12-26T19:46:43.131Z,52.98
2018-12-26T19:49:13.589Z,53.85
2018-12-26T19:51:44.882Z,49.83
2018-12-26T19:54:18.095Z,48.52
2018-12-26T19:56:47.800Z,50.58
2018-12-26T19:59:21.017Z,52.48
2018-12-26T20:01:53.471Z,57.70
2018-12-26T20:04:23.179Z,55.48
2018-12-26T20:06:55.340Z,63.73
2018-12-26T20:09:25.399Z,59.23
2018-12-26T20:12:01.897Z,65.00
2018-12-26T20:14:34.641Z,62.33
2018-12-26T20:17:08.425Z,60.00
2018-12-26T20:19:42.668Z,62.95
2018-12-26T20:22:12.389Z,61.83
2018-12-26T20:24:45.147Z,54.25
2018-12-26T20:27:17.678Z,47.75
2018-12-26T20:29:47.410Z,54.75
2018-12-26T20:32:19.873Z,48.33
2018-12-26T20:34:49.570Z,50.12
2018-12-26T20:37:20.909Z,49.90
2018-12-26T20:39:57.739Z,50.85
2018-12-26T20:42:29.901Z,51.00
2018-12-26T20:44:59.619Z,53.98
2018-12-26T20:47:32.116Z,50.83
2018-12-26T20:50:05.704Z,56.13
2018-12-26T20:52:35.491Z,47.93
2018-12-26T20:55:09.997Z,52.98
2018-12-26T20:57:42.676Z,47.67
2018-12-26T21:00:12.480Z,53.83
2018-12-26T21:02:45.292Z,47.05
2018-12-26T21:05:18.813Z,44.35
2018-12-26T21:07:48.499Z,53.15
2018-12-26T21:10:21.652Z,52.08
2018-12-26T21:12:53.689Z,46.23
2018-12-26T21:15:23.752Z,46.70
2018-12-26T21:17:56.552Z,44.00
2018-12-26T21:20:30.890Z,47.50
2018-12-26T21:22:58.344Z,46.42
2018-12-26T21:25:31.145Z,48.98
2018-12-26T21:28:00.852Z,48.92
2018-12-26T21:30:33.767Z,49.03
2018-12-26T21:33:05.783Z,43.20
2018-12-26T21:35:35.529Z,45.25
2018-12-26T21:38:07.480Z,53.75
2018-12-26T21:40:37.250Z,45.12
2018-12-26T21:43:08.804Z,50.43
2018-12-26T21:45:43.455Z,52.40
2018-12-26T21:48:10.397Z,50.15
2018-12-26T21:50:42.776Z,50.50
2018-12-26T21:53:12.466Z,55.70
2018-12-26T21:55:44.433Z,49.53
2018-12-26T21:58:14.129Z,45.65
2018-12-26T22:00:49.397Z,46.13
2018-12-26T22:03:22.348Z,47.17
2018-12-26T22:05:55.641Z,49.25
2018-12-26T22:08:26.321Z,55.10
2018-12-26T22:11:00.769Z,46.45
2018-12-26T22:13:33.312Z,49.23
2018-12-26T22:16:06.137Z,53.10
2018-12-26T22:18:35.865Z,49.48
2018-12-26T22:21:08.341Z,53.48
2018-12-26T22:23:38.068Z,56.30
2018-12-26T22:26:09.367Z,56.40
2018-12-26T22:28:42.792Z,60.55
2018-12-26T22:31:12.571Z,53.75
2018-12-26T22:33:45.040Z,51.42
2018-12-26T22:36:19.759Z,56.63
2018-12-26T22:38:46.609Z,46.80
2018-12-26T22:41:21.773Z,51.50
2018-12-26T22:43:54.931Z,52.15
2018-12-26T22:46:24.632Z,54.35
2018-12-26T22:48:57.674Z,54.20
2018-12-26T22:51:31.804Z,60.45
2018-12-26T22:54:01.575Z,57.03
2018-12-26T22:56:34.362Z,56.58
2018-12-26T22:59:07.172Z,56.65
2018-12-26T23:01:37.045Z,60.75
2018-12-26T23:04:08.656Z,57.30
2018-12-26T23:06:38.409Z,47.73
2018-12-26T23:09:11.146Z,53.73
2018-12-26T23:11:48.300Z,59.98
2018-12-26T23:14:21.052Z,56.28
2018-12-26T23:16:55.445Z,54.05
2018-12-26T23:19:22.730Z,44.20
2018-12-26T23:21:54.909Z,59.08
2018-12-26T23:24:24.621Z,58.08
2018-12-26T23:26:58.456Z,50.98
2018-12-26T23:29:31.124Z,51.80
2018-12-26T23:32:00.893Z,57.75
2018-12-26T23:34:32.560Z,70.90
2018-12-26T23:37:18.949Z,52.98
2018-12-26T23:39:48.673Z,48.83
2018-12-26T23:42:21.441Z,48.23
2018-12-26T23:44:53.821Z,46.02
2018-12-26T23:47:24.497Z,45.25
2018-12-26T23:49:57.522Z,51.25
2018-12-26T23:52:30.354Z,49.38
2018-12-26T23:55:00.149Z,46.18
2018-12-26T23:57:32.636Z,46.53
